Time;durP1;ratioP1;P1;durP2;ratioP2;P2;SDS_P1;SDS_P2;PMS_P1;PMS_P2;Temp;Humidity;BMP_temperature;BMP_pressure;BME280_temperature;BME280_humidity;BME280_pressure;Samples;Min_cycle;Max_cycle;Signal;HPM_P1;HPM_P2
2023/02/17 00:00:38;;;;;;;25.45;16.70;;;8.50;99.90;;;;;;5060254;28;20048;-72
2023/02/17 00:03:04;;;;;;;22.40;15.68;;;8.50;99.90;;;;;;5061938;28;20044;-72
2023/02/17 00:05:31;;;;;;;24.63;16.08;;;8.50;99.90;;;;;;5059401;28;20490;-72
2023/02/17 00:07:57;;;;;;;28.95;17.17;;;8.50;99.90;;;;;;5064534;28;20040;-72
2023/02/17 00:10:24;;;;;;;23.45;16.23;;;8.50;99.90;;;;;;5065905;28;20264;-72
2023/02/17 00:12:51;;;;;;;27.17;18.08;;;8.50;99.90;;;;;;5068120;28;20244;-72
2023/02/17 00:15:17;;;;;;;23.50;15.45;;;8.40;99.90;;;;;;5067477;28;20284;-72
2023/02/17 00:17:44;;;;;;;22.95;17.25;;;8.40;99.90;;;;;;5059208;28;20067;-72
2023/02/17 00:20:11;;;;;;;24.73;18.33;;;8.40;99.90;;;;;;5048764;28;20032;-72
2023/02/17 00:22:38;;;;;;;24.38;18.08;;;8.50;99.90;;;;;;5042642;28;20052;-71
2023/02/17 00:25:05;;;;;;;25.27;17.60;;;8.50;99.90;;;;;;5062423;28;20048;-72
2023/02/17 00:27:32;;;;;;;25.70;17.90;;;8.50;99.90;;;;;;5054876;28;20098;-71
2023/02/17 00:29:58;;;;;;;23.02;16.00;;;8.50;99.90;;;;;;5059930;28;20042;-72
2023/02/17 00:32:28;;;;;;;24.63;16.88;;;8.60;99.90;;;;;;5048947;28;20449;-73
2023/02/17 00:34:57;;;;;;;27.58;19.77;;;8.50;99.90;;;;;;5058038;28;20053;-72
2023/02/17 00:37:24;;;;;;;30.25;20.10;;;8.50;99.90;;;;;;5061131;28;20036;-73
2023/02/17 00:39:51;;;;;;;28.25;18.70;;;8.50;99.90;;;;;;5049253;28;20048;-72
2023/02/17 00:42:18;;;;;;;32.47;20.00;;;8.40;99.90;;;;;;5039862;28;20114;-71
2023/02/17 00:44:44;;;;;;;28.55;19.70;;;8.40;99.90;;;;;;5049537;28;20200;-72
2023/02/17 00:47:12;;;;;;;25.48;18.23;;;8.40;99.90;;;;;;5059045;28;20102;-72
2023/02/17 00:49:39;;;;;;;37.00;23.30;;;8.40;99.90;;;;;;5061395;28;20059;-71
2023/02/17 00:52:06;;;;;;;34.95;22.63;;;8.40;99.90;;;;;;5040217;28;20074;-72
2023/02/17 00:54:33;;;;;;;36.92;19.73;;;8.30;99.90;;;;;;5042884;28;20071;-73
2023/02/17 00:56:59;;;;;;;33.75;21.42;;;8.40;99.90;;;;;;5042551;28;20573;-72
2023/02/17 00:59:26;;;;;;;32.83;20.55;;;8.40;99.90;;;;;;5046912;28;20036;-72
2023/02/17 01:01:53;;;;;;;32.22;19.75;;;8.40;99.90;;;;;;5038382;28;20735;-71
2023/02/17 01:04:20;;;;;;;28.08;19.20;;;8.40;99.90;;;;;;5067533;28;20040;-72
2023/02/17 01:06:46;;;;;;;33.30;22.27;;;8.40;99.90;;;;;;5035713;28;20051;-71
2023/02/17 01:09:13;;;;;;;33.90;22.30;;;8.40;99.90;;;;;;5050287;28;20131;-70
2023/02/17 01:11:41;;;;;;;32.72;20.38;;;8.40;99.90;;;;;;5066819;28;21534;-70
2023/02/17 01:14:11;;;;;;;32.67;22.00;;;8.50;99.90;;;;;;5038582;28;20079;-70
2023/02/17 01:16:40;;;;;;;29.50;19.30;;;8.50;99.90;;;;;;5041157;28;20067;-72
2023/02/17 01:19:10;;;;;;;31.80;21.50;;;8.50;99.90;;;;;;5043718;28;20044;-73
2023/02/17 01:21:37;;;;;;;32.45;22.02;;;8.50;99.90;;;;;;5055482;28;20063;-71
2023/02/17 01:24:06;;;;;;;31.92;22.23;;;8.60;99.90;;;;;;5045952;28;20043;-72
2023/02/17 01:26:35;;;;;;;33.90;20.98;;;8.50;99.90;;;;;;5019063;28;20131;-72
2023/02/17 01:29:04;;;;;;;32.20;22.40;;;8.50;99.90;;;;;;5065281;28;20230;-70
2023/02/17 01:31:31;;;;;;;39.45;24.17;;;8.50;99.90;;;;;;5040982;28;20036;-72
2023/02/17 01:34:01;;;;;;;36.25;25.15;;;8.50;99.90;;;;;;5061299;28;20048;-72
2023/02/17 01:36:28;;;;;;;35.65;22.70;;;8.50;99.90;;;;;;5037687;28;20040;-72
2023/02/17 01:38:55;;;;;;;33.85;22.48;;;8.50;99.90;;;;;;5055300;28;20048;-73
2023/02/17 01:41:28;;;;;;;34.85;24.20;;;8.50;99.90;;;;;;5043413;28;20041;-72
2023/02/17 01:44:21;;;;;;;31.45;22.42;;;8.50;99.90;;;;;;5042107;28;20049;-73
2023/02/17 01:46:50;;;;;;;31.08;20.88;;;8.60;99.90;;;;;;5051549;28;20052;-72
2023/02/17 01:49:31;;;;;;;38.03;24.35;;;8.60;99.90;;;;;;5055916;28;20048;-72
2023/02/17 01:52:17;;;;;;;35.08;23.10;;;8.60;99.90;;;;;;5045169;28;20500;-72
2023/02/17 01:54:49;;;;;;;33.72;24.92;;;8.60;99.90;;;;;;5037458;28;20056;-71
2023/02/17 01:57:18;;;;;;;40.00;23.55;;;8.60;99.90;;;;;;5061778;28;20127;-70
2023/02/17 01:59:45;;;;;;;40.60;26.48;;;8.60;99.90;;;;;;5048027;28;20131;-72
2023/02/17 02:02:13;;;;;;;39.05;26.90;;;8.60;99.90;;;;;;5046330;28;20048;-72
2023/02/17 02:04:45;;;;;;;40.90;26.02;;;8.60;99.90;;;;;;5058578;28;20063;-71
2023/02/17 02:07:22;;;;;;;38.80;25.25;;;8.70;99.90;;;;;;5063953;28;20558;-70
2023/02/17 02:09:55;;;;;;;42.08;26.92;;;8.70;99.90;;;;;;5038997;28;20830;-71
2023/02/17 02:12:27;;;;;;;44.95;28.88;;;8.70;99.90;;;;;;5063343;28;20338;-71
2023/02/17 02:14:59;;;;;;;44.63;28.73;;;8.70;99.90;;;;;;5039880;28;20470;-70
2023/02/17 02:17:50;;;;;;;43.63;29.10;;;8.70;99.90;;;;;;5057775;28;20044;-71
2023/02/17 02:20:29;;;;;;;43.30;29.10;;;8.70;99.90;;;;;;5048220;28;20059;-71
2023/02/17 02:23:19;;;;;;;47.47;30.90;;;8.60;99.90;;;;;;5043076;28;20256;-72
2023/02/17 02:26:24;;;;;;;45.80;29.10;;;8.60;99.90;;;;;;5058226;28;20630;-71
2023/02/17 02:29:27;;;;;;;52.38;32.20;;;8.60;99.90;;;;;;5063881;28;20048;-71
2023/02/17 02:32:22;;;;;;;53.55;32.38;;;8.60;99.90;;;;;;5035440;28;20530;-72
2023/02/17 02:34:58;;;;;;;51.80;32.10;;;8.60;99.90;;;;;;5060709;28;20625;-71
2023/02/17 02:37:40;;;;;;;58.75;35.28;;;8.60;99.90;;;;;;5046997;28;20032;-71
2023/02/17 02:40:10;;;;;;;58.45;33.00;;;8.60;99.90;;;;;;5061085;28;20044;-70
2023/02/17 02:42:38;;;;;;;58.63;34.65;;;8.60;99.90;;;;;;5046626;28;20056;-70
2023/02/17 02:45:09;;;;;;;56.40;35.15;;;8.70;99.90;;;;;;5039865;28;20052;-70
2023/02/17 02:47:46;;;;;;;59.88;34.83;;;8.70;99.90;;;;;;5034138;28;20037;-72
2023/02/17 02:50:27;;;;;;;62.65;37.35;;;8.60;99.90;;;;;;5032386;28;20048;-70
2023/02/17 02:53:38;;;;;;;58.95;35.58;;;8.60;99.90;;;;;;5053326;28;20040;-70
2023/02/17 02:56:27;;;;;;;70.78;37.85;;;8.60;99.90;;;;;;5022568;28;20502;-71
2023/02/17 02:59:28;;;;;;;58.20;35.55;;;8.60;99.90;;;;;;5048197;28;20410;-72
2023/02/17 03:02:11;;;;;;;73.30;40.25;;;8.60;99.90;;;;;;5049288;28;20131;-71
2023/02/17 03:04:46;;;;;;;64.93;37.33;;;8.70;99.90;;;;;;5049408;28;20522;-71
2023/02/17 03:07:36;;;;;;;68.82;39.85;;;8.60;99.90;;;;;;5042319;28;20044;-71
2023/02/17 03:10:04;;;;;;;64.45;35.17;;;8.60;99.90;;;;;;5037577;28;20618;-71
2023/02/17 03:12:35;;;;;;;66.32;38.80;;;8.60;99.90;;;;;;5042855;28;20437;-71
2023/02/17 03:15:27;;;;;;;79.05;42.05;;;8.60;99.90;;;;;;5031320;28;20345;-72
2023/02/17 03:17:59;;;;;;;72.22;41.40;;;8.60;99.90;;;;;;5026951;28;20032;-71
2023/02/17 03:20:29;;;;;;;78.43;42.88;;;8.60;99.90;;;;;;5033105;28;20094;-70
2023/02/17 03:22:56;;;;;;;74.43;43.28;;;8.60;99.90;;;;;;5033123;28;20339;-71
2023/02/17 03:25:23;;;;;;;71.63;41.20;;;8.70;99.90;;;;;;5052698;28;20696;-70
2023/02/17 03:27:50;;;;;;;75.55;42.88;;;8.60;99.90;;;;;;5021267;28;20143;-72
2023/02/17 03:30:17;;;;;;;76.07;42.42;;;8.60;99.90;;;;;;5055973;28;20080;-70
2023/02/17 03:32:43;;;;;;;74.57;41.42;;;8.60;99.90;;;;;;5051898;28;20052;-70
2023/02/17 03:35:10;;;;;;;75.32;43.63;;;8.60;99.90;;;;;;5057003;28;20036;-72
2023/02/17 03:37:37;;;;;;;79.68;44.60;;;8.60;99.90;;;;;;5034384;28;20047;-70
2023/02/17 03:40:06;;;;;;;85.78;44.45;;;8.60;99.90;;;;;;5052434;28;20191;-71
2023/02/17 03:42:33;;;;;;;69.97;39.53;;;8.60;99.90;;;;;;5053990;28;20043;-72
2023/02/17 03:44:59;;;;;;;77.70;40.40;;;8.70;99.90;;;;;;5054746;28;20055;-73
2023/02/17 03:47:26;;;;;;;68.75;36.05;;;8.70;99.90;;;;;;5058078;28;20046;-73
2023/02/17 03:49:53;;;;;;;72.15;42.10;;;8.70;99.90;;;;;;5044863;28;20037;-73
2023/02/17 03:52:19;;;;;;;70.07;38.53;;;8.70;99.90;;;;;;5048584;28;20044;-72
2023/02/17 03:54:46;;;;;;;69.22;38.17;;;8.70;99.90;;;;;;5046311;28;20406;-72
2023/02/17 03:57:13;;;;;;;59.10;34.58;;;8.70;99.90;;;;;;5054276;28;20036;-71
2023/02/17 03:59:40;;;;;;;57.35;35.35;;;8.70;99.90;;;;;;5049697;28;20636;-73
2023/02/17 04:02:06;;;;;;;57.60;34.85;;;8.70;99.90;;;;;;5037211;28;20044;-73
2023/02/17 04:04:35;;;;;;;58.53;35.28;;;8.70;99.90;;;;;;5045374;28;20093;-72
2023/02/17 04:07:01;;;;;;;58.15;36.88;;;8.80;99.90;;;;;;5050751;28;20426;-71
2023/02/17 04:09:28;;;;;;;62.05;34.15;;;8.80;99.90;;;;;;5030269;28;20419;-72
2023/02/17 04:11:54;;;;;;;54.97;34.13;;;8.80;99.90;;;;;;5033751;28;20050;-72
2023/02/17 04:14:21;;;;;;;48.63;27.73;;;8.80;99.90;;;;;;5043993;28;20029;-74
2023/02/17 04:16:48;;;;;;;52.92;30.88;;;8.80;99.90;;;;;;5049744;28;20126;-73
2023/02/17 04:19:14;;;;;;;58.78;36.33;;;8.80;99.90;;;;;;5056965;28;20028;-73
2023/02/17 04:21:41;;;;;;;60.10;35.35;;;8.80;99.90;;;;;;5053080;28;20047;-73
2023/02/17 04:24:08;;;;;;;52.05;31.73;;;8.80;99.90;;;;;;5046181;23;20041;-73
2023/02/17 04:26:34;;;;;;;62.35;34.63;;;8.80;99.90;;;;;;5027809;28;20049;-74
2023/02/17 04:29:03;;;;;;;62.08;35.58;;;8.80;99.90;;;;;;5025996;28;20064;-73
2023/02/17 04:31:31;;;;;;;60.03;35.17;;;8.80;99.90;;;;;;5028561;28;20044;-73
2023/02/17 04:33:58;;;;;;;58.22;35.58;;;8.80;99.90;;;;;;5038727;28;20052;-74
2023/02/17 04:36:25;;;;;;;59.15;33.80;;;8.80;99.90;;;;;;5026480;28;20041;-73
2023/02/17 04:38:51;;;;;;;58.63;34.15;;;8.80;99.90;;;;;;5017833;28;20037;-73
2023/02/17 04:41:19;;;;;;;63.17;37.40;;;8.80;99.90;;;;;;5033446;28;20495;-74
2023/02/17 04:43:45;;;;;;;65.18;38.47;;;8.80;99.90;;;;;;5011755;28;20120;-74
2023/02/17 04:46:12;;;;;;;67.53;36.70;;;8.80;99.90;;;;;;5037295;28;20183;-74
2023/02/17 04:48:39;;;;;;;66.28;36.88;;;8.80;99.90;;;;;;5014527;28;20048;-73
2023/02/17 04:51:06;;;;;;;61.42;35.80;;;8.80;99.90;;;;;;5017504;28;20053;-73
2023/02/17 04:53:32;;;;;;;61.58;36.30;;;8.80;99.90;;;;;;5012858;28;20049;-74
2023/02/17 04:55:59;;;;;;;61.90;36.92;;;8.80;99.90;;;;;;5012924;28;20845;-73
2023/02/17 04:58:26;;;;;;;62.28;35.90;;;8.80;99.90;;;;;;5028812;28;20036;-73
2023/02/17 05:00:53;;;;;;;58.70;35.15;;;8.80;99.90;;;;;;5015529;28;20049;-74
2023/02/17 05:03:19;;;;;;;59.42;36.80;;;8.80;99.90;;;;;;5016324;28;20519;-74
2023/02/17 05:05:46;;;;;;;54.80;33.42;;;8.80;99.90;;;;;;5026719;28;20033;-74
2023/02/17 05:08:13;;;;;;;51.17;30.67;;;8.80;99.90;;;;;;5009080;28;20132;-74
2023/02/17 05:10:40;;;;;;;46.60;30.90;;;8.90;99.90;;;;;;5008727;28;20295;-73
2023/02/17 05:13:07;;;;;;;40.97;27.88;;;8.90;99.90;;;;;;5028545;28;20388;-74
2023/02/17 05:15:34;;;;;;;44.63;30.25;;;9.00;99.90;;;;;;5009549;28;20068;-74
2023/02/17 05:18:01;;;;;;;41.05;27.90;;;9.00;99.90;;;;;;4995418;28;20045;-74
2023/02/17 05:20:27;;;;;;;40.65;27.92;;;9.00;99.90;;;;;;5011330;28;20041;-73
2023/02/17 05:22:54;;;;;;;42.38;28.20;;;9.00;99.90;;;;;;5009296;28;20114;-73
2023/02/17 05:25:21;;;;;;;39.88;25.83;;;9.10;99.90;;;;;;5012069;28;20434;-73
2023/02/17 05:27:47;;;;;;;35.70;25.58;;;9.10;99.90;;;;;;5028876;28;20049;-75
2023/02/17 05:30:15;;;;;;;30.23;21.17;;;9.10;99.90;;;;;;5012639;28;20522;-75
2023/02/17 05:32:42;;;;;;;35.55;23.60;;;9.20;99.90;;;;;;4992274;28;20057;-75
2023/02/17 05:35:09;;;;;;;34.72;23.70;;;9.20;99.90;;;;;;5013688;28;20091;-74
2023/02/17 05:37:35;;;;;;;31.38;22.35;;;9.20;99.90;;;;;;5004843;28;20132;-75
2023/02/17 05:40:02;;;;;;;32.45;22.38;;;9.20;99.90;;;;;;5022164;28;20041;-74
2023/02/17 05:42:29;;;;;;;19.98;17.08;;;9.20;99.90;;;;;;5012099;28;20048;-73
2023/02/17 05:44:55;;;;;;;28.52;21.42;;;9.20;99.90;;;;;;5014654;28;20041;-72
2023/02/17 05:47:22;;;;;;;29.15;19.90;;;9.30;99.90;;;;;;5031360;28;20044;-72
2023/02/17 05:49:49;;;;;;;27.73;21.13;;;9.30;99.90;;;;;;4997648;28;20233;-71
2023/02/17 05:52:17;;;;;;;30.30;20.05;;;9.30;99.90;;;;;;4997892;28;20675;-73
2023/02/17 05:54:44;;;;;;;27.60;20.92;;;9.30;99.90;;;;;;5027875;28;20140;-72
2023/02/17 05:57:10;;;;;;;26.55;19.63;;;9.30;99.90;;;;;;5025432;28;20033;-73
2023/02/17 05:59:37;;;;;;;27.58;21.10;;;9.30;99.90;;;;;;5010368;28;20056;-72
2023/02/17 06:02:04;;;;;;;27.77;20.50;;;9.40;99.90;;;;;;5027934;28;20048;-72
2023/02/17 06:04:32;;;;;;;30.15;19.92;;;9.40;99.90;;;;;;5028474;28;20041;-72
2023/02/17 06:06:59;;;;;;;26.33;18.83;;;9.40;99.90;;;;;;4995460;28;20040;-71
2023/02/17 06:09:25;;;;;;;26.38;19.80;;;9.40;99.90;;;;;;5004386;28;20168;-72
2023/02/17 06:11:52;;;;;;;27.48;20.05;;;9.40;99.90;;;;;;5007954;28;20064;-71
2023/02/17 06:14:19;;;;;;;26.75;19.63;;;9.40;99.90;;;;;;5026176;28;20287;-72
2023/02/17 06:16:46;;;;;;;25.85;18.73;;;9.40;99.90;;;;;;5026567;28;20037;-72
2023/02/17 06:19:12;;;;;;;30.45;21.17;;;9.40;99.90;;;;;;5013657;28;20052;-72
2023/02/17 06:21:39;;;;;;;25.55;19.88;;;9.40;99.90;;;;;;5010061;28;20048;-73
2023/02/17 06:24:06;;;;;;;25.60;19.38;;;9.40;99.90;;;;;;5018084;28;20555;-72
2023/02/17 06:26:33;;;;;;;29.17;19.73;;;9.40;99.90;;;;;;5012018;28;20346;-71
2023/02/17 06:29:00;;;;;;;29.95;21.75;;;9.40;99.90;;;;;;5007969;28;20068;-71
2023/02/17 06:31:27;;;;;;;23.98;19.48;;;9.40;99.90;;;;;;5030440;28;20310;-72
2023/02/17 06:33:53;;;;;;;26.48;19.60;;;9.40;99.90;;;;;;5030538;28;20810;-72
2023/02/17 06:36:20;;;;;;;26.70;20.90;;;9.40;99.90;;;;;;5019427;28;20222;-73
2023/02/17 06:38:47;;;;;;;28.05;21.08;;;9.40;99.90;;;;;;5054878;28;20045;-70
2023/02/17 06:41:13;;;;;;;29.08;21.50;;;9.40;99.90;;;;;;5056993;28;20029;-71
2023/02/17 06:43:40;;;;;;;28.13;22.40;;;9.40;99.90;;;;;;5043345;28;20041;-72
2023/02/17 06:46:07;;;;;;;27.02;22.55;;;9.50;99.90;;;;;;5009330;28;20037;-72
2023/02/17 06:48:34;;;;;;;27.90;22.40;;;9.40;99.90;;;;;;5024264;28;20044;-72
2023/02/17 06:51:01;;;;;;;31.42;23.75;;;9.50;99.90;;;;;;5020351;28;20137;-71
2023/02/17 06:53:28;;;;;;;28.40;22.58;;;9.40;99.90;;;;;;5011300;28;20064;-72
2023/02/17 06:55:54;;;;;;;26.02;21.85;;;9.50;99.90;;;;;;5013277;28;20136;-72
2023/02/17 06:58:21;;;;;;;28.13;22.58;;;9.50;99.90;;;;;;5020089;28;20037;-71
2023/02/17 07:00:48;;;;;;;32.78;23.67;;;9.50;99.90;;;;;;5002262;28;20037;-71
2023/02/17 07:03:14;;;;;;;30.50;23.95;;;9.50;99.90;;;;;;5029091;28;20071;-71
2023/02/17 07:05:41;;;;;;;34.15;26.13;;;9.60;99.90;;;;;;5023031;28;20049;-72
2023/02/17 07:08:08;;;;;;;28.23;22.65;;;9.60;99.90;;;;;;5028134;28;20067;-73
2023/02/17 07:10:36;;;;;;;34.70;25.90;;;9.60;99.90;;;;;;5014657;28;20040;-73
2023/02/17 07:13:03;;;;;;;31.08;24.55;;;9.60;99.90;;;;;;4995667;28;20079;-73
2023/02/17 07:15:30;;;;;;;27.38;22.95;;;9.60;99.90;;;;;;5029132;28;20041;-73
2023/02/17 07:17:57;;;;;;;30.35;23.45;;;9.60;99.90;;;;;;5025389;28;20530;-72
2023/02/17 07:20:23;;;;;;;33.97;23.13;;;9.60;99.90;;;;;;5011376;28;20202;-74
2023/02/17 07:22:50;;;;;;;27.70;22.80;;;9.60;99.90;;;;;;5015480;28;20049;-70
2023/02/17 07:25:17;;;;;;;30.98;25.17;;;9.60;99.90;;;;;;5030377;28;20453;-71
2023/02/17 07:27:43;;;;;;;28.25;22.30;;;9.60;99.90;;;;;;5025040;28;20132;-70
2023/02/17 07:30:11;;;;;;;27.27;21.90;;;9.60;99.90;;;;;;5020716;28;20642;-70
2023/02/17 07:32:38;;;;;;;29.17;23.92;;;9.60;99.90;;;;;;5028352;28;20045;-71
2023/02/17 07:35:05;;;;;;;31.05;22.40;;;9.60;99.90;;;;;;5009290;28;20327;-70
2023/02/17 07:37:32;;;;;;;27.45;22.70;;;9.70;99.90;;;;;;5011035;28;20268;-70
2023/02/17 07:39:59;;;;;;;26.88;22.35;;;9.70;99.90;;;;;;5014399;28;20057;-70
2023/02/17 07:42:27;;;;;;;31.73;23.98;;;9.70;99.90;;;;;;5029395;28;20043;-71
2023/02/17 07:44:53;;;;;;;32.78;24.23;;;9.70;99.90;;;;;;5021246;28;20057;-70
2023/02/17 07:47:20;;;;;;;29.85;22.55;;;9.70;99.90;;;;;;5024752;28;20197;-71
2023/02/17 07:49:47;;;;;;;30.30;23.67;;;9.70;99.90;;;;;;5024318;28;20060;-70
2023/02/17 07:52:16;;;;;;;31.42;24.60;;;9.70;99.90;;;;;;5019737;28;20126;-70
2023/02/17 07:54:43;;;;;;;31.73;23.17;;;9.70;99.90;;;;;;5008078;28;20136;-71
2023/02/17 07:57:10;;;;;;;30.20;22.75;;;9.70;99.90;;;;;;5012395;28;20091;-71
2023/02/17 07:59:36;;;;;;;30.98;21.65;;;9.80;99.90;;;;;;5035089;28;20053;-71
2023/02/17 08:02:03;;;;;;;30.83;23.50;;;9.80;99.90;;;;;;5008934;28;20047;-71
2023/02/17 08:04:31;;;;;;;32.78;25.15;;;9.70;99.90;;;;;;5029010;28;20045;-70
2023/02/17 08:06:58;;;;;;;32.50;24.05;;;9.80;99.90;;;;;;5018368;28;21036;-70
2023/02/17 08:15:06;;;;;;;29.98;23.08;;;9.90;99.90;;;;;;5010705;28;20045;-71
2023/02/17 08:17:33;;;;;;;32.55;23.25;;;9.80;99.90;;;;;;5027998;28;20055;-71
2023/02/17 08:20:00;;;;;;;30.10;22.55;;;9.80;99.90;;;;;;5007006;28;20029;-70
2023/02/17 08:22:34;;;;;;;31.70;22.40;;;9.90;99.90;;;;;;5031896;28;20049;-71
2023/02/17 08:25:01;;;;;;;27.13;20.33;;;9.90;99.90;;;;;;5023880;28;20051;-70
2023/02/17 08:27:28;;;;;;;29.42;24.08;;;9.90;99.90;;;;;;5015340;28;20055;-71
2023/02/17 08:29:54;;;;;;;31.33;22.58;;;9.90;99.90;;;;;;5008942;28;21016;-72
2023/02/17 08:32:22;;;;;;;26.48;21.50;;;9.90;99.90;;;;;;5014217;28;20078;-72
2023/02/17 08:34:49;;;;;;;29.13;21.23;;;9.90;99.90;;;;;;5009476;28;20139;-71
2023/02/17 08:37:15;;;;;;;33.75;23.17;;;9.90;99.90;;;;;;5030363;28;20216;-71
2023/02/17 08:39:42;;;;;;;32.97;23.50;;;9.90;99.90;;;;;;5008472;28;20037;-69
2023/02/17 08:42:10;;;;;;;29.70;19.17;;;9.90;99.90;;;;;;5019957;28;20052;-71
2023/02/17 08:44:37;;;;;;;31.00;23.85;;;9.90;99.90;;;;;;5031098;28;20121;-71
2023/02/17 08:47:05;;;;;;;31.90;22.35;;;9.90;99.90;;;;;;4995833;28;20225;-70
2023/02/17 08:49:32;;;;;;;39.28;24.55;;;9.90;99.90;;;;;;5033412;28;20048;-70
2023/02/17 08:51:59;;;;;;;32.75;22.48;;;9.90;99.90;;;;;;5009838;28;20041;-70
2023/02/17 08:54:27;;;;;;;31.42;22.00;;;9.90;99.90;;;;;;5023940;28;20047;-70
2023/02/17 08:56:53;;;;;;;29.67;21.90;;;9.90;99.90;;;;;;5026501;28;20049;-70
2023/02/17 08:59:20;;;;;;;31.95;21.35;;;9.90;99.90;;;;;;5016547;28;20083;-70
2023/02/17 09:01:47;;;;;;;27.65;19.70;;;9.90;99.90;;;;;;5026415;28;20230;-70
2023/02/17 09:04:17;;;;;;;27.48;20.05;;;10.00;99.90;;;;;;5018846;28;20442;-73
2023/02/17 09:06:49;;;;;;;24.90;17.70;;;10.00;99.90;;;;;;5033110;28;20095;-72
2023/02/17 09:09:21;;;;;;;25.38;19.38;;;10.00;99.90;;;;;;5049312;28;20599;-72
2023/02/17 09:11:48;;;;;;;19.63;17.10;;;10.00;99.90;;;;;;5028858;28;20049;-72
2023/02/17 09:14:15;;;;;;;21.58;16.98;;;10.10;99.90;;;;;;5027873;28;20041;-71
2023/02/17 09:16:42;;;;;;;24.33;17.75;;;10.10;99.90;;;;;;5030994;28;20049;-72
2023/02/17 09:19:08;;;;;;;22.33;17.17;;;10.10;99.90;;;;;;5017117;28;20057;-73
2023/02/17 09:21:35;;;;;;;22.48;16.02;;;10.10;99.90;;;;;;5010200;28;20287;-73
2023/02/17 09:24:02;;;;;;;24.05;17.67;;;10.20;99.90;;;;;;5010974;28;20052;-74
2023/02/17 09:26:29;;;;;;;23.85;18.52;;;10.20;99.90;;;;;;5031661;28;20114;-73
2023/02/17 09:28:56;;;;;;;20.42;16.13;;;10.30;99.90;;;;;;4999807;28;20064;-70
2023/02/17 09:31:25;;;;;;;20.08;15.50;;;10.30;99.90;;;;;;5030301;28;20040;-73
2023/02/17 09:33:53;;;;;;;20.10;15.90;;;10.30;99.90;;;;;;5011488;28;20239;-72
2023/02/17 09:36:26;;;;;;;21.80;16.52;;;10.40;99.90;;;;;;5031629;28;20283;-73
2023/02/17 09:38:54;;;;;;;21.25;17.10;;;10.30;99.90;;;;;;5012648;28;20072;-72
2023/02/17 09:41:36;;;;;;;21.40;15.70;;;10.40;99.90;;;;;;5031602;28;20045;-71
2023/02/17 09:44:06;;;;;;;17.58;15.00;;;10.30;99.90;;;;;;5029842;28;20658;-72
2023/02/17 09:46:42;;;;;;;18.63;14.98;;;10.40;99.90;;;;;;5030934;28;20041;-70
2023/02/17 09:49:31;;;;;;;17.77;14.73;;;10.40;99.90;;;;;;5028818;28;20126;-71
2023/02/17 09:52:14;;;;;;;27.00;16.67;;;10.40;99.90;;;;;;5027984;28;20175;-70
2023/02/17 09:54:58;;;;;;;21.48;16.33;;;10.40;99.90;;;;;;5026066;28;20043;-71
2023/02/17 09:57:28;;;;;;;19.92;15.60;;;10.40;99.90;;;;;;5015054;28;20215;-72
2023/02/17 10:00:01;;;;;;;20.02;15.85;;;10.40;99.90;;;;;;5024160;28;20083;-72
2023/02/17 10:02:49;;;;;;;23.23;18.02;;;10.40;99.90;;;;;;5033028;28;20339;-71
2023/02/17 10:05:20;;;;;;;19.85;15.75;;;10.40;99.90;;;;;;5008049;28;20135;-72
2023/02/17 10:07:53;;;;;;;20.33;15.88;;;10.40;99.90;;;;;;5028834;28;20057;-71
2023/02/17 10:10:26;;;;;;;20.83;15.85;;;10.50;99.90;;;;;;5026149;28;20045;-71
2023/02/17 10:13:00;;;;;;;20.77;15.00;;;10.50;99.90;;;;;;5011462;28;20041;-71
2023/02/17 10:15:34;;;;;;;23.77;16.73;;;10.50;99.90;;;;;;5024731;28;20055;-72
2023/02/17 10:18:10;;;;;;;21.05;16.05;;;10.50;99.90;;;;;;5047614;28;20674;-72
2023/02/17 10:20:48;;;;;;;22.92;17.58;;;10.50;99.90;;;;;;5028176;28;20091;-72
2023/02/17 10:23:17;;;;;;;28.08;19.00;;;10.50;99.90;;;;;;5015622;28;20053;-73
2023/02/17 10:26:04;;;;;;;23.60;18.40;;;10.50;99.90;;;;;;5076432;22;20044;-77
2023/02/17 10:28:52;;;;;;;28.80;19.98;;;10.50;99.90;;;;;;5055943;28;20485;-75
2023/02/17 10:31:55;;;;;;;28.45;21.13;;;10.50;99.90;;;;;;5021890;28;20037;-76
2023/02/17 10:34:35;;;;;;;30.52;20.65;;;10.60;99.90;;;;;;5029582;28;20087;-77
2023/02/17 10:37:23;;;;;;;30.30;23.23;;;10.60;99.90;;;;;;5023611;28;20033;-78
2023/02/17 10:39:53;;;;;;;31.00;21.70;;;10.60;99.90;;;;;;5022685;28;20036;-74
2023/02/17 10:42:29;;;;;;;29.25;21.33;;;10.60;99.90;;;;;;5021546;28;20063;-77
2023/02/17 10:45:09;;;;;;;35.25;21.92;;;10.60;99.90;;;;;;5026949;28;20044;-78
2023/02/17 10:47:38;;;;;;;27.67;20.35;;;10.70;99.90;;;;;;5028315;28;20492;-79
2023/02/17 10:50:22;;;;;;;31.25;22.77;;;10.70;99.90;;;;;;5041705;28;20499;-77
2023/02/17 10:52:49;;;;;;;30.85;21.83;;;10.70;99.90;;;;;;5045589;28;20043;-78
2023/02/17 10:55:32;;;;;;;32.03;21.40;;;10.70;99.90;;;;;;5036225;28;20067;-78
2023/02/17 10:58:12;;;;;;;27.35;20.40;;;10.70;99.90;;;;;;5026363;28;20075;-79
2023/02/17 11:00:41;;;;;;;29.15;22.30;;;10.80;99.90;;;;;;5024501;28;20647;-78
2023/02/17 11:03:19;;;;;;;28.05;22.17;;;10.80;99.90;;;;;;5038828;28;20490;-77
2023/02/17 11:05:56;;;;;;;29.08;20.63;;;10.80;99.90;;;;;;5019906;28;20040;-80
2023/02/17 11:08:30;;;;;;;29.13;22.65;;;10.90;99.90;;;;;;5030158;28;20051;-77
2023/02/17 11:11:03;;;;;;;28.45;19.85;;;10.90;99.90;;;;;;5039976;28;20070;-78
2023/02/17 11:13:38;;;;;;;24.80;19.20;;;10.90;99.90;;;;;;5026838;28;20051;-77
2023/02/17 11:16:18;;;;;;;26.50;20.08;;;11.00;99.90;;;;;;5025004;28;20050;-77
2023/02/17 11:18:48;;;;;;;26.08;20.85;;;11.00;99.90;;;;;;5034417;28;20056;-80
2023/02/17 11:21:15;;;;;;;22.33;18.75;;;11.10;99.90;;;;;;5023749;28;20106;-81
2023/02/17 11:23:55;;;;;;;23.25;18.90;;;11.10;99.90;;;;;;5022061;28;20052;-77
2023/02/17 11:26:24;;;;;;;27.83;20.00;;;11.20;99.90;;;;;;5021915;28;20099;-78
2023/02/17 11:28:51;;;;;;;19.80;17.67;;;11.20;99.90;;;;;;5022760;28;20420;-76
2023/02/17 11:31:26;;;;;;;20.63;18.42;;;11.30;99.90;;;;;;5038266;28;20043;-77
2023/02/17 11:33:54;;;;;;;21.80;18.17;;;11.40;99.90;;;;;;5028375;28;20041;-81
2023/02/17 11:36:26;;;;;;;19.08;17.08;;;11.40;99.90;;;;;;5043071;28;20476;-77
2023/02/17 11:38:53;;;;;;;20.45;16.58;;;11.50;99.90;;;;;;5034670;28;20177;-77
2023/02/17 11:41:20;;;;;;;20.75;18.63;;;11.60;99.90;;;;;;5036488;28;20046;-79
2023/02/17 11:43:57;;;;;;;16.98;15.35;;;11.60;99.90;;;;;;5035082;28;20100;-78
2023/02/17 11:46:40;;;;;;;18.95;17.25;;;11.70;99.90;;;;;;5015528;28;20041;-77
2023/02/17 11:49:35;;;;;;;17.48;15.77;;;11.90;99.90;;;;;;5016433;28;20290;-77
2023/02/17 11:52:18;;;;;;;17.10;15.35;;;11.90;99.90;;;;;;5036709;28;20070;-79
2023/02/17 11:55:11;;;;;;;16.67;14.98;;;11.90;99.90;;;;;;5033265;28;20078;-82
2023/02/17 11:57:43;;;;;;;17.30;15.80;;;12.00;99.90;;;;;;5037649;28;20479;-78
2023/02/17 12:00:14;;;;;;;17.48;15.88;;;12.20;99.90;;;;;;5038571;28;20055;-78
2023/02/17 12:03:16;;;;;;;18.70;17.05;;;12.40;99.90;;;;;;5035835;28;20079;-78
2023/02/17 12:06:10;;;;;;;17.70;16.05;;;12.50;99.90;;;;;;5028169;28;20045;-79
2023/02/17 12:09:06;;;;;;;19.33;17.63;;;12.70;99.90;;;;;;5031836;28;20548;-79
2023/02/17 12:11:54;;;;;;;19.98;18.50;;;12.80;99.90;;;;;;5032159;28;20412;-78
2023/02/17 12:14:36;;;;;;;18.48;17.15;;;12.70;99.90;;;;;;5031140;28;20064;-78
2023/02/17 12:17:34;;;;;;;21.15;19.25;;;12.70;99.90;;;;;;5020077;28;20041;-76
2023/02/17 12:20:37;;;;;;;19.58;17.83;;;12.60;99.90;;;;;;5031436;28;20049;-76
2023/02/17 12:23:28;;;;;;;19.48;18.15;;;12.70;99.90;;;;;;5034621;28;20059;-76
2023/02/17 12:26:10;;;;;;;19.17;17.77;;;12.70;99.90;;;;;;5034540;28;20585;-75
2023/02/17 12:28:51;;;;;;;19.20;17.90;;;12.80;99.90;;;;;;5031851;28;20131;-77
2023/02/17 12:31:18;;;;;;;20.33;18.80;;;12.80;99.90;;;;;;5037232;28;20123;-77
2023/02/17 12:34:00;;;;;;;19.95;18.08;;;12.80;99.90;;;;;;5023253;28;20155;-76
2023/02/17 12:36:32;;;;;;;20.25;18.85;;;12.80;99.90;;;;;;5017347;28;20072;-78
2023/02/17 12:39:17;;;;;;;21.23;18.95;;;12.80;99.90;;;;;;5048460;28;20045;-77
2023/02/17 12:42:02;;;;;;;20.77;19.15;;;12.90;99.90;;;;;;5031694;28;20044;-75
2023/02/17 12:44:33;;;;;;;20.75;19.13;;;12.80;99.90;;;;;;5043609;28;20048;-77
2023/02/17 12:47:14;;;;;;;22.15;20.65;;;12.80;99.90;;;;;;5025905;28;20060;-76
2023/02/17 12:49:47;;;;;;;23.27;21.55;;;12.70;99.90;;;;;;5028193;28;20052;-76
2023/02/17 12:52:26;;;;;;;22.38;20.92;;;12.60;99.90;;;;;;5038032;28;20045;-75
2023/02/17 12:55:16;;;;;;;19.67;18.27;;;12.70;99.90;;;;;;5047633;28;20049;-75
2023/02/17 12:58:02;;;;;;;21.05;19.45;;;12.60;99.90;;;;;;5054146;28;20055;-74
2023/02/17 13:00:37;;;;;;;22.13;20.48;;;12.60;99.90;;;;;;5033540;28;22629;-74